Time;durP1;ratioP1;P1;durP2;ratioP2;P2;SDS_P1;SDS_P2;PMS_P1;PMS_P2;Temp;Humidity;BMP_temperature;BMP_pressure;BME280_temperature;BME280_humidity;BME280_pressure;Samples;Min_cycle;Max_cycle;Signal;HPM_P1;HPM_P2
2023/11/09 00:02:01;;;;;;;5.20;2.25;;;3.10;99.90;;;;;;7511232;19;20582;-71
2023/11/09 00:04:33;;;;;;;4.33;2.47;;;3.20;99.90;;;;;;7507140;19;21725;-71
2023/11/09 00:07:07;;;;;;;3.85;2.10;;;3.10;99.90;;;;;;7513340;19;20010;-71
2023/11/09 00:09:40;;;;;;;2.47;2.13;;;3.00;99.90;;;;;;7511225;19;21431;-71
2023/11/09 00:12:12;;;;;;;3.10;2.20;;;3.10;99.90;;;;;;7513958;19;20021;-71
2023/11/09 00:14:47;;;;;;;4.05;2.10;;;2.90;99.90;;;;;;7517820;19;20096;-71
2023/11/09 00:17:20;;;;;;;3.00;2.10;;;2.90;99.90;;;;;;7497513;19;21300;-72
2023/11/09 00:19:52;;;;;;;2.17;1.57;;;2.90;99.90;;;;;;7523209;19;20378;-71
2023/11/09 00:22:25;;;;;;;3.25;1.92;;;3.00;99.90;;;;;;7492719;19;20025;-72
2023/11/09 00:24:57;;;;;;;6.10;2.10;;;3.00;99.90;;;;;;7513598;19;20033;-72
2023/11/09 00:27:30;;;;;;;3.13;1.90;;;3.10;99.90;;;;;;7518262;19;20017;-73
2023/11/09 00:30:02;;;;;;;6.07;2.05;;;3.10;99.90;;;;;;7507353;19;20489;-72
2023/11/09 00:32:37;;;;;;;3.67;1.90;;;3.20;99.90;;;;;;7513565;19;20143;-71
2023/11/09 00:35:10;;;;;;;5.22;2.15;;;3.20;99.90;;;;;;7500574;19;20025;-72
2023/11/09 00:37:43;;;;;;;3.30;1.90;;;3.10;99.90;;;;;;7512003;19;20022;-70
2023/11/09 00:40:16;;;;;;;2.67;1.80;;;3.10;99.90;;;;;;7520270;19;20090;-72
2023/11/09 00:42:48;;;;;;;3.13;2.08;;;3.10;99.90;;;;;;7524720;19;21653;-70
2023/11/09 00:45:20;;;;;;;3.30;1.90;;;3.00;99.90;;;;;;7500012;19;20014;-72
2023/11/09 00:47:53;;;;;;;5.43;1.80;;;2.90;99.90;;;;;;7502467;19;20488;-73
2023/11/09 00:50:25;;;;;;;1.80;1.45;;;3.00;99.90;;;;;;7517698;19;21529;-71
2023/11/09 00:52:58;;;;;;;3.72;1.70;;;3.00;99.90;;;;;;7509064;19;21509;-71
2023/11/09 00:55:33;;;;;;;4.43;1.67;;;3.10;99.90;;;;;;7494321;19;20022;-71
2023/11/09 00:58:05;;;;;;;3.83;1.58;;;3.00;99.90;;;;;;7500022;19;20106;-71
2023/11/09 01:00:38;;;;;;;2.22;1.55;;;3.10;99.90;;;;;;7499680;19;20017;-71
2023/11/09 01:03:11;;;;;;;3.22;1.90;;;3.10;99.90;;;;;;7494326;19;20014;-72
2023/11/09 01:05:45;;;;;;;2.88;1.50;;;3.00;99.90;;;;;;7511706;19;21507;-71
2023/11/09 01:08:18;;;;;;;3.58;1.88;;;3.00;99.90;;;;;;7492188;19;21055;-71
2023/11/09 01:10:51;;;;;;;3.40;1.60;;;3.10;99.90;;;;;;7481979;19;20022;-71
2023/11/09 01:13:23;;;;;;;2.80;1.65;;;3.10;99.90;;;;;;7486683;19;20024;-71
2023/11/09 01:15:57;;;;;;;4.68;1.60;;;3.10;99.90;;;;;;7496260;19;20025;-70
2023/11/09 01:18:30;;;;;;;3.05;1.45;;;3.10;99.90;;;;;;7498587;19;20015;-70
2023/11/09 01:21:02;;;;;;;2.03;1.35;;;3.10;99.90;;;;;;7505561;19;20006;-70
2023/11/09 01:23:36;;;;;;;6.93;2.03;;;3.10;99.90;;;;;;7493597;19;20018;-70
2023/11/09 01:26:09;;;;;;;1.85;1.40;;;3.10;99.90;;;;;;7480307;19;20018;-70
2023/11/09 01:28:42;;;;;;;1.77;1.50;;;3.20;99.90;;;;;;7499461;19;21193;-71
2023/11/09 01:31:14;;;;;;;2.85;1.58;;;3.10;99.90;;;;;;7497090;19;20020;-71
2023/11/09 01:33:48;;;;;;;2.00;1.33;;;3.10;99.90;;;;;;7501296;19;21448;-71
2023/11/09 01:36:21;;;;;;;2.28;1.50;;;3.20;99.90;;;;;;7494644;19;20018;-70
2023/11/09 01:38:53;;;;;;;2.63;1.48;;;3.20;99.90;;;;;;7484513;19;21271;-72
2023/11/09 01:41:25;;;;;;;1.70;1.23;;;3.00;99.90;;;;;;7496373;19;20020;-72
2023/11/09 01:43:59;;;;;;;4.18;1.23;;;3.00;99.90;;;;;;7494184;19;20018;-70
2023/11/09 01:46:32;;;;;;;3.03;1.60;;;3.00;99.90;;;;;;7508962;19;21034;-70
2023/11/09 01:49:05;;;;;;;2.58;1.40;;;3.00;99.90;;;;;;7490299;19;20888;-71
2023/11/09 01:51:40;;;;;;;1.52;1.38;;;3.00;99.90;;;;;;7494689;19;20025;-72
2023/11/09 01:54:13;;;;;;;3.97;1.40;;;3.00;99.90;;;;;;7501376;19;20014;-71
2023/11/09 01:56:46;;;;;;;7.95;1.70;;;3.00;99.90;;;;;;7482709;19;20464;-71
2023/11/09 01:59:21;;;;;;;1.75;1.38;;;3.00;99.90;;;;;;7489093;19;20144;-70
2023/11/09 02:01:56;;;;;;;2.00;1.38;;;3.10;99.90;;;;;;7476387;19;20021;-73
2023/11/09 02:04:29;;;;;;;3.00;1.30;;;3.10;99.90;;;;;;7492710;19;22583;-73
2023/11/09 02:07:02;;;;;;;1.63;1.33;;;3.10;99.90;;;;;;7482213;19;20693;-72
2023/11/09 02:09:36;;;;;;;;;;;3.10;99.90;;;;;;7483161;19;20025;-72
2023/11/09 02:12:10;;;;;;;1.30;1.00;;;3.10;99.90;;;;;;7501761;19;20802;-72
2023/11/09 02:14:42;;;;;;;2.08;1.55;;;3.20;99.90;;;;;;7494013;19;25515;-72
2023/11/09 02:17:16;;;;;;;1.92;1.40;;;3.20;99.90;;;;;;7505070;19;21563;-72
2023/11/09 02:19:49;;;;;;;1.83;1.30;;;3.10;99.90;;;;;;7522589;19;20018;-72
2023/11/09 02:22:26;;;;;;;1.83;1.20;;;3.10;99.90;;;;;;7496474;19;21231;-71
2023/11/09 02:24:59;;;;;;;1.70;1.20;;;3.10;99.90;;;;;;7502313;19;20018;-72
2023/11/09 02:27:35;;;;;;;2.40;1.35;;;3.00;99.90;;;;;;7494279;19;20010;-72
2023/11/09 02:30:08;;;;;;;3.40;1.55;;;3.00;99.90;;;;;;7505044;19;20023;-72
2023/11/09 02:32:40;;;;;;;1.40;1.17;;;3.00;99.90;;;;;;7496116;19;20021;-72
2023/11/09 02:35:14;;;;;;;2.13;1.55;;;3.00;99.90;;;;;;7498271;19;20023;-72
2023/11/09 02:37:46;;;;;;;2.45;1.23;;;3.00;99.90;;;;;;7492468;19;21908;-72
2023/11/09 02:40:20;;;;;;;4.63;1.40;;;2.80;99.90;;;;;;7518705;19;20014;-72
2023/11/09 02:42:52;;;;;;;1.20;1.10;;;2.90;99.90;;;;;;7513615;19;20018;-73
2023/11/09 02:45:25;;;;;;;2.28;1.33;;;2.90;99.90;;;;;;7496933;19;21450;-72
2023/11/09 02:47:57;;;;;;;1.98;1.20;;;2.90;99.90;;;;;;7512266;19;20022;-72
2023/11/09 02:50:30;;;;;;;2.45;1.45;;;2.90;99.90;;;;;;7507514;19;20015;-72
2023/11/09 02:53:03;;;;;;;2.60;1.40;;;2.90;99.90;;;;;;7517631;19;20638;-71
2023/11/09 02:55:35;;;;;;;1.60;1.17;;;2.90;99.90;;;;;;7493759;19;20014;-71
2023/11/09 02:58:08;;;;;;;2.00;1.13;;;2.90;99.90;;;;;;7521654;19;20056;-70
2023/11/09 03:00:41;;;;;;;2.75;1.58;;;3.00;99.90;;;;;;7509461;19;21221;-71
2023/11/09 03:03:14;;;;;;;1.23;1.05;;;3.00;99.90;;;;;;7509758;19;20103;-71
2023/11/09 03:05:47;;;;;;;1.60;1.33;;;3.00;99.90;;;;;;7522568;19;20681;-71
2023/11/09 03:08:20;;;;;;;3.35;1.40;;;3.00;99.90;;;;;;7496167;19;20026;-70
2023/11/09 03:10:52;;;;;;;1.92;1.20;;;2.90;99.90;;;;;;7518354;19;20117;-71
2023/11/09 03:13:26;;;;;;;2.15;1.27;;;3.00;99.90;;;;;;7522317;19;20022;-72
2023/11/09 03:15:59;;;;;;;1.35;1.13;;;3.00;99.90;;;;;;7523447;19;20625;-72
2023/11/09 03:18:32;;;;;;;2.28;1.20;;;3.00;99.90;;;;;;7515555;19;21931;-72
2023/11/09 03:21:04;;;;;;;3.17;1.52;;;3.00;99.90;;;;;;7512553;19;20014;-73
2023/11/09 03:23:37;;;;;;;1.63;1.10;;;3.10;99.90;;;;;;7516977;19;20018;-71
2023/11/09 03:26:10;;;;;;;1.30;1.20;;;3.10;99.90;;;;;;7524642;19;20025;-71
2023/11/09 03:28:42;;;;;;;2.42;1.15;;;3.20;99.90;;;;;;7504873;19;21393;-71
2023/11/09 03:31:15;;;;;;;1.47;1.10;;;3.20;99.90;;;;;;7487942;19;20018;-71
2023/11/09 03:33:48;;;;;;;1.75;0.93;;;3.20;99.90;;;;;;7505538;19;22457;-71
2023/11/09 03:36:20;;;;;;;1.95;1.27;;;3.20;99.90;;;;;;7499281;19;20596;-71
2023/11/09 03:38:53;;;;;;;2.92;1.08;;;3.20;99.90;;;;;;7485572;19;20011;-70
2023/11/09 03:41:29;;;;;;;1.20;1.07;;;3.20;99.90;;;;;;7480814;19;20117;-70
2023/11/09 03:44:01;;;;;;;1.63;1.10;;;3.20;99.90;;;;;;7505639;19;20055;-73
2023/11/09 03:46:34;;;;;;;2.88;1.23;;;3.10;99.90;;;;;;7488281;19;20022;-72
2023/11/09 03:49:10;;;;;;;1.30;0.95;;;3.10;99.90;;;;;;7485350;19;22312;-72
2023/11/09 03:51:43;;;;;;;1.23;1.02;;;3.10;99.90;;;;;;7505682;19;20015;-72
2023/11/09 03:54:15;;;;;;;2.58;1.20;;;3.00;99.90;;;;;;7491871;19;20103;-72
2023/11/09 03:56:48;;;;;;;1.17;1.02;;;3.00;99.90;;;;;;7482797;19;20021;-71
2023/11/09 03:59:20;;;;;;;4.05;1.10;;;3.10;99.90;;;;;;7475549;19;20015;-73
2023/11/09 04:01:55;;;;;;;1.67;1.35;;;3.00;99.90;;;;;;7510113;19;20492;-72
2023/11/09 04:04:27;;;;;;;1.80;1.02;;;3.00;99.90;;;;;;7506895;19;20019;-72
2023/11/09 04:07:00;;;;;;;1.75;1.40;;;3.00;99.90;;;;;;7503911;19;20019;-72
2023/11/09 04:09:33;;;;;;;1.90;1.17;;;3.00;99.90;;;;;;7498646;19;20098;-72
2023/11/09 04:12:06;;;;;;;2.42;1.25;;;2.90;99.90;;;;;;7491279;19;20019;-70
2023/11/09 04:14:38;;;;;;;1.70;1.27;;;2.80;99.90;;;;;;7491047;19;20011;-72
2023/11/09 04:17:11;;;;;;;2.13;1.35;;;2.70;99.90;;;;;;7499373;19;20014;-71
2023/11/09 04:19:44;;;;;;;2.10;1.40;;;2.70;99.90;;;;;;7492537;19;20015;-71
2023/11/09 04:22:17;;;;;;;2.03;1.30;;;2.60;99.90;;;;;;7499725;19;20298;-71
2023/11/09 04:24:49;;;;;;;1.63;1.40;;;2.60;99.90;;;;;;7486447;19;21228;-71
2023/11/09 04:27:21;;;;;;;2.65;1.23;;;2.50;99.90;;;;;;7486458;19;20011;-71
2023/11/09 04:29:54;;;;;;;2.25;1.38;;;2.40;99.90;;;;;;7498599;19;20706;-71
2023/11/09 04:32:27;;;;;;;3.45;1.95;;;2.40;99.90;;;;;;7493709;19;20361;-71
2023/11/09 04:34:59;;;;;;;3.60;1.52;;;2.30;99.90;;;;;;7505724;19;20021;-71
2023/11/09 04:37:31;;;;;;;2.58;1.70;;;2.30;99.90;;;;;;7506324;19;20018;-71
2023/11/09 04:40:15;;;;;;;4.63;1.70;;;2.20;99.90;;;;;;7494340;19;21574;-73
2023/11/09 04:42:49;;;;;;;2.53;1.92;;;2.20;99.90;;;;;;7479257;19;20808;-72
2023/11/09 04:45:22;;;;;;;5.50;1.50;;;2.10;99.90;;;;;;7479391;19;20010;-73
2023/11/09 04:47:57;;;;;;;2.53;1.30;;;2.00;99.90;;;;;;7462579;19;20022;-72
2023/11/09 04:50:30;;;;;;;6.53;1.45;;;2.00;99.90;;;;;;7480765;19;20015;-72
2023/11/09 04:53:07;;;;;;;3.90;1.40;;;1.90;99.90;;;;;;7481805;19;21234;-72
2023/11/09 04:55:53;;;;;;;1.58;1.20;;;1.90;99.90;;;;;;7469685;19;20058;-71
2023/11/09 04:58:47;;;;;;;3.20;1.80;;;1.90;99.90;;;;;;7465087;19;20061;-73
2023/11/09 05:07:02;;;;;;;5.80;1.60;;;1.60;99.90;;;;;;7491887;19;20028;-72
2023/11/09 05:09:34;;;;;;;2.88;1.60;;;1.60;99.90;;;;;;7477657;19;20011;-73
2023/11/09 05:12:06;;;;;;;2.45;1.58;;;1.60;99.90;;;;;;7487418;19;20018;-72
2023/11/09 05:14:39;;;;;;;4.18;2.15;;;1.50;99.90;;;;;;7465211;19;20040;-72
2023/11/09 05:17:13;;;;;;;4.40;2.13;;;1.40;99.90;;;;;;7485431;19;20018;-73
2023/11/09 05:19:46;;;;;;;2.15;1.50;;;1.40;99.90;;;;;;7501663;19;20021;-72
2023/11/09 05:22:18;;;;;;;2.00;1.50;;;1.40;99.90;;;;;;7471583;19;20018;-72
2023/11/09 05:24:51;;;;;;;1.47;1.37;;;1.40;99.90;;;;;;7458865;19;20058;-72
2023/11/09 05:27:24;;;;;;;2.92;2.00;;;1.40;99.90;;;;;;7447062;19;21811;-72
2023/11/09 05:29:57;;;;;;;2.22;1.50;;;1.30;99.90;;;;;;7456281;19;20019;-72
2023/11/09 05:32:29;;;;;;;9.48;2.03;;;1.30;99.90;;;;;;7469526;19;20118;-72
2023/11/09 05:35:04;;;;;;;4.47;1.40;;;1.30;99.90;;;;;;7498334;19;20023;-71
2023/11/09 05:37:37;;;;;;;6.22;2.00;;;1.30;99.90;;;;;;7485439;19;20772;-72
2023/11/09 05:40:10;;;;;;;3.08;1.60;;;1.20;99.90;;;;;;7484695;19;20026;-72
2023/11/09 05:42:43;;;;;;;4.40;1.70;;;1.30;99.90;;;;;;7460032;19;20058;-71
2023/11/09 05:45:16;;;;;;;4.88;1.70;;;1.20;99.90;;;;;;7459017;19;20021;-71
2023/11/09 05:47:48;;;;;;;3.50;1.42;;;1.20;99.90;;;;;;7485273;19;20014;-71
2023/11/09 05:50:21;;;;;;;3.45;1.48;;;1.10;99.90;;;;;;7470905;19;20021;-71
2023/11/09 05:52:53;;;;;;;3.07;1.70;;;1.10;99.90;;;;;;7483779;19;22210;-72
2023/11/09 05:55:26;;;;;;;2.20;1.58;;;1.00;99.90;;;;;;7477909;19;20340;-72
2023/11/09 05:57:58;;;;;;;2.63;1.60;;;1.00;99.90;;;;;;7463170;19;20656;-71
2023/11/09 06:00:31;;;;;;;2.38;1.95;;;1.00;99.90;;;;;;7474765;19;20061;-71
2023/11/09 06:03:04;;;;;;;6.78;2.00;;;1.10;99.90;;;;;;7469023;19;21330;-71
2023/11/09 06:05:38;;;;;;;2.78;1.80;;;1.10;99.90;;;;;;7507941;19;20086;-72
2023/11/09 06:08:11;;;;;;;3.28;2.05;;;1.00;99.90;;;;;;7464156;19;20014;-72
2023/11/09 06:10:45;;;;;;;3.45;1.77;;;1.00;99.90;;;;;;7484207;19;20018;-72
2023/11/09 06:13:18;;;;;;;4.05;1.88;;;1.00;99.90;;;;;;7478447;19;20771;-71
2023/11/09 06:15:51;;;;;;;2.65;1.70;;;1.00;99.90;;;;;;7465891;19;20014;-71
2023/11/09 06:18:24;;;;;;;2.90;2.00;;;0.90;99.90;;;;;;7464848;19;20835;-71
2023/11/09 06:20:57;;;;;;;4.50;2.38;;;1.00;99.90;;;;;;7487498;19;21929;-71
2023/11/09 06:23:29;;;;;;;3.10;2.20;;;1.10;99.90;;;;;;7471195;19;20021;-71
2023/11/09 06:26:02;;;;;;;3.08;2.30;;;1.20;99.90;;;;;;7448544;19;20010;-71
2023/11/09 06:28:35;;;;;;;5.60;2.50;;;1.30;99.90;;;;;;7478396;19;20048;-70
2023/11/09 06:31:08;;;;;;;4.97;2.90;;;1.20;99.90;;;;;;7431911;19;20280;-70
2023/11/09 06:33:41;;;;;;;6.23;3.70;;;1.20;99.90;;;;;;7463808;19;20061;-70
2023/11/09 06:36:16;;;;;;;11.73;4.22;;;1.20;99.90;;;;;;7503569;19;20318;-71
2023/11/09 06:38:51;;;;;;;7.97;4.10;;;1.20;99.90;;;;;;7539682;19;20011;-71
2023/11/09 06:41:27;;;;;;;9.60;3.08;;;1.30;99.90;;;;;;7530131;19;20018;-71
2023/11/09 06:44:00;;;;;;;6.20;3.22;;;1.20;99.90;;;;;;7524590;19;20018;-71
2023/11/09 06:46:32;;;;;;;4.90;2.58;;;1.30;99.90;;;;;;7524419;19;20021;-71
2023/11/09 06:49:08;;;;;;;5.90;3.38;;;1.40;99.90;;;;;;7526675;19;20028;-71
2023/11/09 06:51:40;;;;;;;5.93;3.58;;;1.60;99.90;;;;;;7536584;19;20017;-70
2023/11/09 06:54:13;;;;;;;5.30;3.33;;;1.50;99.90;;;;;;7531438;19;21398;-71
2023/11/09 06:56:46;;;;;;;6.45;3.33;;;1.60;99.90;;;;;;7516472;19;20019;-73
2023/11/09 06:59:21;;;;;;;7.80;4.20;;;1.50;99.90;;;;;;7512316;19;21673;-72
2023/11/09 07:01:54;;;;;;;6.47;3.60;;;1.80;99.90;;;;;;7521210;19;20014;-73
2023/11/09 07:04:28;;;;;;;8.57;2.80;;;2.10;99.90;;;;;;7512543;19;20025;-73
2023/11/09 07:07:01;;;;;;;7.50;3.67;;;2.00;99.90;;;;;;7535045;19;20018;-73
2023/11/09 07:09:33;;;;;;;8.20;3.03;;;2.00;99.90;;;;;;7559740;19;20268;-73
2023/11/09 07:12:06;;;;;;;6.47;3.33;;;2.00;99.90;;;;;;7566302;19;20021;-73
2023/11/09 07:14:40;;;;;;;19.13;3.97;;;2.00;99.90;;;;;;7555812;19;20021;-73
2023/11/09 07:17:14;;;;;;;9.85;3.45;;;2.00;99.90;;;;;;7563818;19;21260;-73
2023/11/09 07:19:49;;;;;;;4.63;2.78;;;2.00;99.90;;;;;;7556712;19;20022;-72
2023/11/09 07:22:22;;;;;;;12.32;3.45;;;2.00;99.90;;;;;;7563809;19;20028;-72
2023/11/09 07:24:56;;;;;;;7.93;3.17;;;2.10;99.90;;;;;;7537135;19;20417;-73
2023/11/09 07:27:43;;;;;;;7.13;2.97;;;2.10;99.90;;;;;;7546255;19;21473;-73
2023/11/09 07:30:16;;;;;;;8.30;2.85;;;2.10;99.90;;;;;;7554438;19;20277;-73
2023/11/09 07:32:48;;;;;;;5.00;2.90;;;2.10;99.90;;;;;;7551816;19;20022;-73
2023/11/09 07:35:21;;;;;;;3.40;2.30;;;2.10;99.90;;;;;;7565879;19;20129;-73
2023/11/09 07:37:54;;;;;;;7.35;2.85;;;2.20;99.90;;;;;;7562488;19;20024;-74
2023/11/09 07:40:29;;;;;;;6.43;3.10;;;2.30;99.90;;;;;;7556276;19;20029;-73
2023/11/09 07:43:03;;;;;;;4.28;2.67;;;2.40;99.90;;;;;;7551365;19;20961;-74
2023/11/09 07:45:37;;;;;;;7.93;3.92;;;2.50;99.90;;;;;;7524645;19;20346;-73
2023/11/09 07:48:09;;;;;;;8.07;4.13;;;2.60;99.90;;;;;;7556113;19;20015;-73
2023/11/09 07:50:43;;;;;;;;;;;2.60;99.90;;;;;;7557980;19;20030;-70
2023/11/09 07:53:16;;;;;;;9.02;4.82;;;2.80;99.90;;;;;;7571564;19;20391;-74
2023/11/09 07:55:48;;;;;;;12.90;5.57;;;2.80;99.90;;;;;;7554338;19;20316;-73
2023/11/09 07:58:21;;;;;;;9.93;5.80;;;2.90;99.90;;;;;;7566992;19;21317;-73
2023/11/09 08:00:54;;;;;;;15.40;7.13;;;3.00;99.90;;;;;;7557128;19;21630;-73
2023/11/09 08:03:28;;;;;;;9.70;5.18;;;3.10;99.90;;;;;;7565644;19;20014;-73
2023/11/09 08:06:02;;;;;;;17.05;5.90;;;3.20;99.90;;;;;;7556637;19;20111;-73
2023/11/09 08:08:36;;;;;;;13.02;6.55;;;3.30;99.90;;;;;;7562785;19;20026;-73
2023/11/09 08:11:08;;;;;;;16.20;6.72;;;3.50;99.90;;;;;;7551322;19;20018;-72
2023/11/09 08:13:41;;;;;;;14.57;6.00;;;3.50;99.90;;;;;;7552492;19;20404;-72
2023/11/09 08:16:15;;;;;;;8.90;5.10;;;3.60;99.90;;;;;;7547197;19;20029;-73
2023/11/09 08:18:47;;;;;;;;;;;3.80;99.90;;;;;;7553896;19;20035;-73
2023/11/09 08:21:20;;;;;;;10.45;4.88;;;4.00;99.90;;;;;;7567862;19;20463;-73
2023/11/09 08:23:54;;;;;;;11.10;5.00;;;4.10;99.90;;;;;;7547563;19;20018;-72
2023/11/09 08:26:27;;;;;;;8.57;4.80;;;4.30;99.90;;;;;;7560155;19;20018;-72
2023/11/09 08:28:59;;;;;;;12.10;4.80;;;4.40;99.90;;;;;;7530142;19;21334;-72
2023/11/09 08:31:37;;;;;;;8.67;4.03;;;4.60;99.90;;;;;;7560921;19;20078;-72
2023/11/09 08:34:11;;;;;;;9.23;3.80;;;4.70;99.90;;;;;;7544107;19;20011;-72
2023/11/09 08:36:43;;;;;;;7.45;3.47;;;4.80;99.90;;;;;;7555985;19;21528;-73
2023/11/09 08:39:22;;;;;;;7.05;3.17;;;4.90;99.90;;;;;;7561423;19;21351;-72
2023/11/09 08:41:55;;;;;;;6.18;3.45;;;5.10;99.90;;;;;;7546272;19;21515;-73
2023/11/09 08:44:28;;;;;;;5.22;2.78;;;5.30;99.90;;;;;;7555369;19;20373;-73
2023/11/09 08:47:03;;;;;;;9.88;3.15;;;5.40;99.90;;;;;;7551442;19;20022;-71
2023/11/09 08:49:37;;;;;;;5.38;3.35;;;5.60;99.90;;;;;;7562812;19;20018;-73
2023/11/09 08:52:10;;;;;;;7.22;3.30;;;5.80;99.90;;;;;;7556398;19;20853;-74
2023/11/09 08:54:45;;;;;;;10.65;3.15;;;6.00;99.90;;;;;;7556952;19;20021;-73
2023/11/09 08:57:18;;;;;;;5.25;2.65;;;6.10;99.90;;;;;;7551364;19;20022;-73
2023/11/09 08:59:51;;;;;;;5.38;3.00;;;6.30;99.90;;;;;;7560655;19;20026;-70
2023/11/09 09:02:25;;;;;;;6.18;3.40;;;6.50;99.90;;;;;;7562809;19;20018;-73
2023/11/09 09:04:58;;;;;;;12.88;3.75;;;6.60;99.90;;;;;;7551255;19;20029;-73
2023/11/09 09:07:31;;;;;;;7.13;3.25;;;6.80;99.90;;;;;;7559973;19;20031;-73
2023/11/09 09:10:11;;;;;;;4.65;2.80;;;6.90;99.90;;;;;;7552359;19;20060;-72
2023/11/09 09:12:44;;;;;;;4.78;2.40;;;7.00;99.90;;;;;;7563363;19;20030;-73
2023/11/09 09:15:17;;;;;;;4.75;2.70;;;7.20;99.90;;;;;;7550042;19;20018;-72
2023/11/09 09:17:50;;;;;;;2.20;1.25;;;7.30;99.90;;;;;;7561200;19;20010;-73
2023/11/09 09:20:23;;;;;;;4.13;1.83;;;7.50;99.90;;;;;;7551166;19;20022;-73
2023/11/09 09:22:59;;;;;;;3.43;1.83;;;7.70;99.90;;;;;;7559700;19;20074;-72
2023/11/09 09:25:33;;;;;;;6.22;1.88;;;7.80;99.90;;;;;;7556445;19;20069;-73
2023/11/09 09:28:09;;;;;;;3.70;1.90;;;7.90;98.80;;;;;;7550637;19;20052;-73
2023/11/09 09:30:41;;;;;;;2.95;1.60;;;8.10;99.20;;;;;;7548216;19;21479;-73
2023/11/09 09:33:14;;;;;;;5.65;1.67;;;8.20;98.10;;;;;;7544179;19;20010;-74
2023/11/09 09:35:47;;;;;;;4.00;1.73;;;8.30;99.00;;;;;;7557836;19;20306;-73
2023/11/09 09:38:21;;;;;;;3.63;1.42;;;8.40;98.30;;;;;;7523041;19;20011;-71
2023/11/09 09:40:55;;;;;;;6.78;1.58;;;8.50;97.80;;;;;;7556814;19;20092;-72
2023/11/09 09:43:28;;;;;;;2.35;1.50;;;8.70;96.70;;;;;;7551866;19;20021;-72
2023/11/09 09:46:01;;;;;;;3.25;1.45;;;8.90;96.70;;;;;;7556418;19;20018;-71
2023/11/09 09:48:34;;;;;;;4.13;1.90;;;9.00;97.60;;;;;;7558286;19;21073;-72
2023/11/09 09:51:09;;;;;;;8.40;1.50;;;9.00;97.10;;;;;;7552324;19;20022;-71
2023/11/09 09:53:41;;;;;;;2.92;1.20;;;9.20;96.80;;;;;;7553398;19;20010;-71
2023/11/09 09:56:14;;;;;;;6.00;1.55;;;9.30;96.40;;;;;;7550810;19;20014;-72
2023/11/09 09:58:50;;;;;;;1.90;1.20;;;9.40;97.90;;;;;;7556589;19;20021;-71
2023/11/09 10:01:23;;;;;;;6.15;1.83;;;9.50;97.50;;;;;;7533004;19;20701;-71
2023/11/09 10:03:56;;;;;;;;;;;9.60;97.50;;;;;;7558559;19;20121;-72
2023/11/09 10:06:29;;;;;;;7.05;2.25;;;9.60;97.30;;;;;;7545470;19;19922;-71
2023/11/09 10:09:05;;;;;;;4.20;1.60;;;9.60;97.30;;;;;;7550565;19;20613;-71
2023/11/09 10:11:38;;;;;;;5.05;1.67;;;9.80;97.70;;;;;;7497920;19;20293;-71
2023/11/09 10:14:11;;;;;;;;;;;9.80;96.80;;;;;;7513923;19;20022;-71
2023/11/09 10:16:47;;;;;;;4.07;1.52;;;10.00;97.20;;;;;;7510530;19;19922;-71
2023/11/09 10:19:20;;;;;;;4.57;1.77;;;10.20;97.00;;;;;;7519749;19;20041;-72
2023/11/09 10:21:53;;;;;;;4.45;1.73;;;10.20;96.60;;;;;;7535230;19;20019;-71
2023/11/09 10:24:28;;;;;;;3.08;1.42;;;10.30;96.60;;;;;;7527392;19;20123;-72
2023/11/09 10:27:05;;;;;;;3.92;1.50;;;10.50;91.10;;;;;;7520474;19;21009;-72
2023/11/09 10:29:37;;;;;;;3.65;1.20;;;10.70;92.20;;;;;;7527669;19;20018;-72
2023/11/09 10:32:19;;;;;;;3.25;1.35;;;10.80;90.10;;;;;;7511386;19;20018;-70
2023/11/09 10:34:52;;;;;;;4.25;1.20;;;10.90;89.20;;;;;;7529825;19;21055;-72
2023/11/09 10:37:26;;;;;;;2.90;1.23;;;11.10;87.20;;;;;;7518541;19;20015;-72
2023/11/09 10:40:04;;;;;;;5.43;1.30;;;11.20;86.40;;;;;;7548792;19;21076;-72
2023/11/09 10:42:37;;;;;;;2.33;1.15;;;11.30;85.00;;;;;;7537821;19;21302;-72
2023/11/09 10:45:25;;;;;;;3.05;0.90;;;11.40;82.90;;;;;;7541144;19;21205;-74
2023/11/09 10:47:59;;;;;;;1.63;1.15;;;11.50;82.00;;;;;;7539958;19;20019;-72
2023/11/09 10:50:32;;;;;;;4.05;1.20;;;11.60;82.30;;;;;;7534056;19;20094;-72
2023/11/09 10:53:05;;;;;;;2.05;1.08;;;11.70;80.40;;;;;;7542748;19;20015;-72
2023/11/09 10:55:38;;;;;;;2.22;0.88;;;11.80;81.70;;;;;;7564190;19;20050;-71
2023/11/09 10:58:12;;;;;;;2.65;1.02;;;11.80;81.50;;;;;;7532495;19;21808;-72
2023/11/09 11:00:45;;;;;;;2.95;0.90;;;11.80;78.30;;;;;;7537783;19;21405;-72
2023/11/09 11:03:38;;;;;;;2.95;1.35;;;11.80;81.10;;;;;;7560229;19;21289;-72
2023/11/09 11:06:16;;;;;;;2.85;1.10;;;11.90;78.60;;;;;;7566592;19;20436;-72
2023/11/09 11:09:01;;;;;;;3.10;1.10;;;12.00;76.40;;;;;;7562934;19;20006;-72
2023/11/09 11:11:36;;;;;;;1.63;0.90;;;12.10;78.10;;;;;;7556151;19;20044;-72
2023/11/09 11:14:14;;;;;;;1.17;0.75;;;12.30;73.80;;;;;;7542245;19;20018;-72
2023/11/09 11:17:14;;;;;;;3.92;1.20;;;12.70;73.70;;;;;;7544396;19;20014;-73
2023/11/09 11:19:55;;;;;;;3.92;1.00;;;12.90;75.10;;;;;;7539217;19;20045;-73
2023/11/09 11:22:51;;;;;;;3.95;1.10;;;13.20;73.70;;;;;;7559275;19;20022;-74
2023/11/09 11:25:30;;;;;;;3.58;0.80;;;13.40;70.00;;;;;;7556607;19;20435;-73
2023/11/09 11:28:11;;;;;;;2.10;0.93;;;14.00;71.80;;;;;;7555360;19;20025;-73
2023/11/09 11:30:45;;;;;;;3.05;1.10;;;14.60;70.20;;;;;;7559268;19;20025;-73
2023/11/09 11:33:19;;;;;;;3.20;0.88;;;14.50;69.60;;;;;;7547480;19;20022;-73
2023/11/09 11:35:56;;;;;;;2.72;0.85;;;14.00;68.50;;;;;;7558608;19;20015;-73
2023/11/09 11:38:32;;;;;;;2.08;1.08;;;13.80;68.90;;;;;;7552603;19;20015;-73
2023/11/09 11:41:05;;;;;;;1.58;1.20;;;13.90;68.20;;;;;;7565721;19;21616;-73
2023/11/09 11:43:42;;;;;;;2.60;1.10;;;15.20;67.00;;;;;;7546077;19;20018;-73
2023/11/09 11:46:17;;;;;;;2.30;1.20;;;16.90;62.70;;;;;;7555686;19;20189;-73
2023/11/09 11:48:57;;;;;;;1.45;1.00;;;18.10;59.90;;;;;;7535976;19;20094;-73
2023/11/09 11:51:30;;;;;;;3.75;1.27;;;19.30;58.60;;;;;;7553368;19;20018;-73
2023/11/09 11:54:08;;;;;;;2.13;1.25;;;18.60;58.30;;;;;;7528517;19;20013;-73
2023/11/09 11:56:42;;;;;;;4.32;1.58;;;17.80;57.50;;;;;;7551274;19;20021;-72
2023/11/09 11:59:15;;;;;;;2.08;1.02;;;17.10;60.10;;;;;;7551725;19;20018;-73
2023/11/09 12:01:50;;;;;;;1.77;1.40;;;16.30;60.00;;;;;;7549791;19;22398;-73
2023/11/09 12:04:23;;;;;;;1.48;1.00;;;15.30;63.50;;;;;;7552547;19;20014;-73
2023/11/09 12:06:57;;;;;;;3.17;1.00;;;14.70;64.30;;;;;;7557436;19;20042;-73
2023/11/09 12:09:29;;;;;;;2.42;0.80;;;14.00;64.20;;;;;;7536388;19;20060;-74
2023/11/09 12:12:02;;;;;;;2.15;1.17;;;13.70;65.40;;;;;;7541611;19;20014;-72
2023/11/09 12:14:34;;;;;;;1.75;1.27;;;13.40;66.70;;;;;;7516001;19;20042;-73
2023/11/09 12:17:07;;;;;;;3.28;1.20;;;13.20;67.40;;;;;;7532844;19;20027;-73
2023/11/09 12:19:43;;;;;;;1.15;1.00;;;13.10;69.00;;;;;;7546541;19;20048;-73
2023/11/09 12:22:16;;;;;;;2.42;1.20;;;13.10;70.10;;;;;;7539015;19;20138;-73
2023/11/09 12:25:00;;;;;;;2.13;1.27;;;13.20;70.30;;;;;;7547485;19;20022;-73
2023/11/09 12:27:33;;;;;;;2.05;1.10;;;13.30;69.30;;;;;;7528673;19;20024;-73
2023/11/09 12:30:06;;;;;;;1.75;1.10;;;13.50;69.90;;;;;;7554518;19;20018;-73
2023/11/09 12:32:40;;;;;;;2.07;1.23;;;13.40;68.60;;;;;;7544675;19;21806;-73
2023/11/09 12:35:15;;;;;;;2.08;1.40;;;13.30;68.50;;;;;;7500412;19;20274;-71
2023/11/09 12:37:59;;;;;;;4.95;1.27;;;13.50;70.80;;;;;;7502142;19;20063;-72
2023/11/09 12:40:32;;;;;;;3.97;1.52;;;13.50;70.30;;;;;;7535241;19;20019;-72
2023/11/09 12:43:07;;;;;;;3.03;1.10;;;13.60;68.20;;;;;;7544193;19;20022;-71
2023/11/09 12:45:41;;;;;;;1.95;1.08;;;13.90;67.90;;;;;;7495075;19;20015;-71
2023/11/09 12:48:14;;;;;;;1.60;1.17;;;14.10;65.50;;;;;;7530305;19;20014;-70
2023/11/09 12:50:47;;;;;;;3.13;1.23;;;14.10;67.00;;;;;;7495975;19;20046;-71
2023/11/09 12:53:27;;;;;;;2.08;1.10;;;13.90;65.60;;;;;;7495118;19;20025;-71
2023/11/09 12:56:01;;;;;;;4.38;1.65;;;14.00;64.90;;;;;;7506573;19;20018;-73
2023/11/09 12:58:40;;;;;;;4.63;1.35;;;13.80;66.80;;;;;;7511012;19;20023;-73
2023/11/09 13:01:16;;;;;;;4.90;1.35;;;13.70;68.70;;;;;;7506930;19;20018;-71
2023/11/09 13:03:50;;;;;;;4.20;1.10;;;13.60;66.60;;;;;;7519498;19;20890;-73
2023/11/09 13:06:23;;;;;;;;;;;13.30;68.10;;;;;;7518324;19;20010;-70
2023/11/09 13:09:15;;;;;;;1.60;1.10;;;13.10;68.10;;;;;;7528994;19;19926;-73
2023/11/09 13:11:48;;;;;;;3.85;1.30;;;12.90;68.10;;;;;;7512020;19;20017;-73
2023/11/09 13:14:30;;;;;;;1.20;1.08;;;12.70;69.60;;;;;;7503186;19;20019;-73
2023/11/09 13:17:02;;;;;;;2.38;1.20;;;12.60;69.40;;;;;;7510156;19;21749;-72
2023/11/09 13:19:35;;;;;;;1.48;1.17;;;12.60;68.80;;;;;;7522372;19;20738;-71
2023/11/09 13:22:07;;;;;;;4.07;1.70;;;12.50;70.20;;;;;;7510394;19;20014;-71
2023/11/09 13:24:42;;;;;;;2.47;1.25;;;12.50;71.20;;;;;;7519059;19;20876;-71
2023/11/09 13:27:24;;;;;;;4.28;1.38;;;12.40;71.30;;;;;;7520055;19;20057;-73
2023/11/09 13:29:59;;;;;;;4.15;1.35;;;12.40;70.50;;;;;;7502624;19;20044;-71
2023/11/09 13:32:34;;;;;;;6.07;1.30;;;12.40;70.20;;;;;;7522317;19;20014;-73
2023/11/09 13:35:24;;;;;;;2.72;1.60;;;12.40;70.80;;;;;;7485648;19;20018;-71
2023/11/09 13:37:59;;;;;;;2.97;1.48;;;12.40;70.70;;;;;;7498906;19;20644;-71